Time;durP1;ratioP1;P1;durP2;ratioP2;P2;SDS_P1;SDS_P2;PMS_P1;PMS_P2;Temp;Humidity;BMP_temperature;BMP_pressure;BME280_temperature;BME280_humidity;BME280_pressure;Samples;Min_cycle;Max_cycle;Signal;HPM_P1;HPM_P2
2022/05/29 00:01:45;;;;;;;7.15;1.27;;;;;;;10.65;81.36;100727.19;8334678;28;20071;-62
2022/05/29 00:05:47;;;;;;;11.82;1.95;;;;;;;10.63;81.20;100729.16;8329900;28;20783;-62
2022/05/29 00:09:49;;;;;;;8.13;1.40;;;;;;;10.52;81.56;100731.94;8338044;28;20110;-62
2022/05/29 00:13:49;;;;;;;10.02;1.40;;;;;;;10.50;81.93;100725.84;8331778;28;20033;-62
2022/05/29 00:17:51;;;;;;;5.32;1.50;;;;;;;10.43;82.40;100719.22;8327085;28;20045;-62
2022/05/29 00:21:51;;;;;;;7.63;1.30;;;;;;;10.33;83.31;100722.88;8333905;28;20033;-62
2022/05/29 00:25:53;;;;;;;10.50;2.10;;;;;;;10.25;83.73;100720.88;8343332;28;20595;-62
2022/05/29 00:29:53;;;;;;;4.65;1.50;;;;;;;10.16;84.13;100716.28;8339736;28;20034;-62
2022/05/29 00:33:54;;;;;;;6.75;1.55;;;;;;;10.19;84.28;100717.84;8346870;28;20067;-62
2022/05/29 00:37:54;;;;;;;3.95;1.60;;;;;;;10.16;84.35;100716.28;8341274;28;20127;-62
2022/05/29 00:41:54;;;;;;;9.75;1.83;;;;;;;10.16;85.39;100712.69;8336306;28;20037;-62
2022/05/29 00:45:59;;;;;;;5.22;1.50;;;;;;;9.71;87.47;100709.38;8343169;28;20520;-62
2022/05/29 00:49:59;;;;;;;7.43;1.67;;;;;;;9.49;89.76;100704.91;8338445;28;20037;-62
2022/05/29 00:53:59;;;;;;;7.15;2.00;;;;;;;9.42;90.42;100697.47;8334042;28;20055;-62
2022/05/29 00:58:03;;;;;;;8.77;1.75;;;;;;;9.21;91.36;100693.91;8337588;28;20048;-62
2022/05/29 01:02:04;;;;;;;6.57;2.88;;;;;;;9.18;92.03;100691.44;8334128;28;20064;-62
2022/05/29 01:06:05;;;;;;;7.13;2.15;;;;;;;9.10;92.97;100680.44;8344835;28;20045;-62
2022/05/29 01:10:07;;;;;;;6.25;2.20;;;;;;;9.10;92.42;100685.84;8367356;28;20041;-62
2022/05/29 01:14:24;;;;;;;5.18;1.80;;;;;;;9.04;93.00;100678.25;8342300;28;20781;-62
2022/05/29 01:23:52;;;;;;;9.27;2.58;;;;;;;9.14;92.73;100688.16;8330466;27;20396;-60
2022/05/29 01:28:26;;;;;;;11.48;2.85;;;;;;;9.29;92.85;100683.31;8335183;28;20041;-60
2022/05/29 01:32:54;;;;;;;7.97;2.30;;;;;;;9.62;92.17;100677.75;8346095;28;20139;-61
2022/05/29 01:37:19;;;;;;;7.18;1.83;;;;;;;9.68;91.01;100680.81;8325791;28;20033;-61
2022/05/29 01:41:26;;;;;;;12.00;2.70;;;;;;;9.72;90.50;100687.66;8324533;28;20434;-61
2022/05/29 01:46:00;;;;;;;5.43;1.52;;;;;;;9.70;91.19;100680.69;8322664;28;20054;-61
2022/05/29 01:50:08;;;;;;;12.52;2.22;;;;;;;9.66;91.69;100668.41;8330750;28;20041;-61
2022/05/29 01:54:15;;;;;;;8.75;1.95;;;;;;;9.69;91.21;100663.63;8339565;28;20069;-61
2022/05/29 01:58:23;;;;;;;9.27;2.22;;;;;;;9.49;92.11;100660.91;8315176;28;20053;-61
2022/05/29 02:02:30;;;;;;;7.90;2.65;;;;;;;9.38;92.20;100663.66;8323854;28;20042;-61
2022/05/29 02:07:52;;;;;;;8.68;2.75;;;;;;;9.16;93.13;100663.75;8319791;28;20045;-61
2022/05/29 02:11:05;;;;;;;9.57;1.67;;;;;;;9.52;94.02;100655.25;8321754;28;20129;-61
2022/05/29 02:15:09;;;;;;;4.82;1.52;;;;;;;9.49;93.31;100661.75;8324527;28;20048;-61
2022/05/29 02:19:32;;;;;;;7.68;2.08;;;;;;;9.27;94.40;100658.31;8329267;28;20049;-61
2022/05/29 02:23:39;;;;;;;11.15;2.13;;;;;;;9.34;95.82;100659.50;8323205;28;20045;-61
2022/05/29 02:27:51;;;;;;;11.68;2.22;;;;;;;9.35;95.85;100658.50;8332783;28;20042;-61
2022/05/29 02:41:10;;;;;;;7.10;2.00;;;;;;;9.55;94.26;100649.59;8393922;27;20364;-61
2022/05/29 02:45:33;;;;;;;9.77;3.20;;;;;;;9.50;94.44;100636.50;8359979;28;20045;-61
2022/05/29 02:49:44;;;;;;;7.83;2.23;;;;;;;9.34;94.25;100640.63;8353995;28;20063;-61
2022/05/29 02:53:47;;;;;;;9.05;2.25;;;;;;;9.34;96.92;100635.22;8362507;28;20523;-61
2022/05/29 02:57:51;;;;;;;8.00;2.35;;;;;;;9.35;97.10;100628.84;8365326;28;20107;-61
2022/05/29 03:02:09;;;;;;;8.35;2.42;;;;;;;9.37;97.17;100634.97;8364161;28;20120;-61
2022/05/29 03:06:25;;;;;;;9.30;2.45;;;;;;;9.55;95.91;100633.41;8380980;28;20051;-61
2022/05/29 03:10:32;;;;;;;12.55;2.38;;;;;;;9.69;94.74;100630.34;8360601;28;20048;-61
2022/05/29 03:14:43;;;;;;;8.80;2.63;;;;;;;9.69;94.71;100630.34;8375306;28;20037;-61
2022/05/29 03:23:42;;;;;;;10.73;2.47;;;;;;;9.86;94.67;100621.66;8284907;28;20794;-60
2022/05/29 03:27:47;;;;;;;13.00;2.50;;;;;;;9.82;94.29;100631.00;8281189;28;20038;-60
2022/05/29 03:31:48;;;;;;;;;;;;;;;9.84;94.42;100626.34;8284316;28;20545;-61
2022/05/29 03:40:04;;;;;;;13.32;2.30;;;;;;;9.75;96.61;100619.88;8412915;27;20819;-61
2022/05/29 03:44:06;;;;;;;8.35;2.85;;;;;;;9.72;97.26;100622.00;8382319;28;20049;-61
2022/05/29 03:48:07;;;;;;;7.15;2.40;;;;;;;9.64;99.38;100621.81;8382275;28;20040;-61
2022/05/29 03:52:07;;;;;;;8.25;2.85;;;;;;;9.55;100.00;100628.00;8381176;28;20043;-61
2022/05/29 03:56:08;;;;;;;8.27;2.90;;;;;;;9.42;100.00;100622.78;8381047;28;20040;-61
2022/05/29 04:00:11;;;;;;;12.05;3.05;;;;;;;9.50;100.00;100614.91;8381776;28;20703;-61
2022/05/29 04:04:11;;;;;;;8.90;2.85;;;;;;;9.51;100.00;100610.34;8381488;28;20048;-61
2022/05/29 04:12:32;;;;;;;6.90;3.10;;;;;;;9.69;98.30;100606.06;8375038;28;20052;-61
2022/05/29 04:16:33;;;;;;;9.50;3.38;;;;;;;9.74;96.54;100603.81;8381047;28;20062;-61
2022/05/29 04:20:33;;;;;;;11.23;3.03;;;;;;;9.78;96.50;100607.97;8380211;28;20037;-61
2022/05/29 04:24:34;;;;;;;9.38;2.80;;;;;;;9.85;96.44;100598.31;8381349;28;20040;-61
2022/05/29 04:28:34;;;;;;;8.18;3.13;;;;;;;10.01;96.20;100591.44;8376340;28;20433;-61
2022/05/29 04:32:59;;;;;;;9.82;2.90;;;;;;;10.11;96.03;100593.38;8363792;28;20555;-61
2022/05/29 04:36:59;;;;;;;11.02;3.03;;;;;;;10.13;95.75;100592.28;8380668;28;20050;-61
2022/05/29 04:41:06;;;;;;;9.63;3.47;;;;;;;10.19;96.75;100594.44;8379924;28;20501;-61
2022/05/29 04:45:07;;;;;;;15.45;3.28;;;;;;;10.23;97.04;100581.47;8381162;28;20076;-61
2022/05/29 04:49:07;;;;;;;11.30;2.95;;;;;;;10.28;96.63;100587.34;8371552;28;20528;-62
2022/05/29 04:53:08;;;;;;;8.40;3.67;;;;;;;10.33;96.30;100583.22;8359607;28;20378;-61
2022/05/29 04:57:09;;;;;;;11.05;3.60;;;;;;;10.30;95.08;100578.09;8359321;28;20033;-61
2022/05/29 05:01:10;;;;;;;15.85;3.40;;;;;;;10.27;95.55;100575.66;8357854;28;20052;-61
2022/05/29 05:05:12;;;;;;;16.55;3.80;;;;;;;10.48;95.28;100573.75;8361271;28;20220;-61
2022/05/29 05:09:13;;;;;;;14.52;3.83;;;;;;;10.75;95.10;100573.94;8363229;28;20037;-62
2022/05/29 05:13:13;;;;;;;13.60;3.55;;;;;;;11.13;94.35;100573.94;8359339;28;20041;-61
2022/05/29 05:17:14;;;;;;;13.07;3.45;;;;;;;11.27;92.35;100581.66;8356605;28;20087;-61
2022/05/29 05:21:14;;;;;;;9.00;3.53;;;;;;;11.16;92.11;100579.06;8359567;28;20395;-62
2022/05/29 05:25:15;;;;;;;10.32;3.42;;;;;;;11.44;91.35;100583.59;8358740;28;20049;-62
2022/05/29 05:29:17;;;;;;;12.23;3.70;;;;;;;11.65;91.67;100576.19;8359001;28;20496;-62
2022/05/29 05:33:17;;;;;;;15.40;3.53;;;;;;;11.85;89.10;100577.88;8358040;28;20050;-62
2022/05/29 05:37:18;;;;;;;15.75;3.33;;;;;;;12.24;86.13;100566.88;8340054;28;20049;-62
2022/05/29 05:41:18;;;;;;;22.13;3.60;;;;;;;11.84;88.77;100565.31;8357331;28;20056;-62
2022/05/29 05:45:19;;;;;;;13.27;3.30;;;;;;;12.21;86.99;100561.75;8356701;28;20040;-62
2022/05/29 05:49:21;;;;;;;7.10;2.78;;;;;;;12.14;86.24;100556.06;8356805;28;20079;-62
2022/05/29 05:53:22;;;;;;;13.75;3.45;;;;;;;12.04;87.02;100566.09;8357192;28;20041;-62
2022/05/29 05:57:22;;;;;;;8.30;3.42;;;;;;;12.02;87.99;100567.25;8355858;28;20041;-62
2022/05/29 06:01:22;;;;;;;10.07;2.55;;;;;;;11.94;86.80;100565.28;8354379;28;20540;-62
2022/05/29 06:05:23;;;;;;;9.80;2.83;;;;;;;12.03;86.57;100558.97;8356070;28;20051;-62
2022/05/29 06:09:23;;;;;;;14.43;3.10;;;;;;;11.96;87.54;100559.72;8350311;28;20105;-62
2022/05/29 06:13:24;;;;;;;8.50;2.75;;;;;;;11.86;88.23;100574.16;8357657;28;20156;-62
2022/05/29 06:17:24;;;;;;;8.88;2.90;;;;;;;11.78;87.83;100567.75;8357801;28;20052;-62
2022/05/29 06:21:25;;;;;;;13.23;3.50;;;;;;;11.85;88.54;100566.16;8350923;28;20037;-62
2022/05/29 06:25:26;;;;;;;14.75;3.42;;;;;;;11.94;86.93;100562.56;8356919;28;20053;-62
2022/05/29 06:29:27;;;;;;;10.50;3.20;;;;;;;11.69;86.79;100566.75;8356388;28;20401;-62
2022/05/29 06:33:29;;;;;;;14.55;4.07;;;;;;;11.75;86.48;100566.19;8357459;28;20113;-62
2022/05/29 06:37:31;;;;;;;19.20;3.92;;;;;;;11.87;88.31;100565.00;8354101;28;20136;-62
2022/05/29 06:41:33;;;;;;;11.02;3.30;;;;;;;11.89;86.98;100560.31;8353994;28;20040;-62
2022/05/29 06:45:34;;;;;;;14.68;3.42;;;;;;;12.03;87.70;100556.25;8355802;28;20571;-62
2022/05/29 06:49:34;;;;;;;11.85;3.75;;;;;;;12.26;87.24;100548.59;8355058;28;20382;-62
2022/05/29 06:53:36;;;;;;;11.45;3.63;;;;;;;12.41;86.33;100557.94;8352618;28;20045;-62
2022/05/29 06:57:36;;;;;;;12.75;4.22;;;;;;;12.73;85.36;100559.16;8354247;28;20049;-62
2022/05/29 07:07:00;;;;;;;9.32;3.08;;;;;;;13.20;81.43;100554.38;8353209;28;20120;-62
2022/05/29 07:10:17;;;;;;;9.75;3.35;;;;;;;12.80;79.66;100551.25;8352789;28;20053;-62
2022/05/29 07:14:18;;;;;;;9.68;3.03;;;;;;;13.05;79.50;100548.66;8351694;28;20072;-61
2022/05/29 07:18:18;;;;;;;8.77;2.92;;;;;;;13.12;81.30;100559.75;8353211;28;20041;-61
2022/05/29 07:22:19;;;;;;;8.23;2.47;;;;;;;13.19;81.28;100560.81;8352656;28;20055;-61
2022/05/29 07:26:20;;;;;;;10.73;2.90;;;;;;;13.57;79.71;100555.00;8349617;28;20300;-61
2022/05/29 07:30:20;;;;;;;8.38;2.85;;;;;;;12.96;79.38;100548.72;8351599;28;20129;-62
2022/05/29 07:34:21;;;;;;;12.40;3.30;;;;;;;13.12;80.40;100548.88;8351748;28;20147;-62
2022/05/29 07:38:22;;;;;;;13.82;3.25;;;;;;;12.91;82.46;100545.59;8351740;28;20329;-62
2022/05/29 07:43:23;;;;;;;15.40;3.35;;;;;;;13.33;84.44;100549.41;8346472;28;20053;-62
2022/05/29 07:46:43;;;;;;;13.65;3.15;;;;;;;13.21;84.89;100542.53;8342754;28;20052;-62
2022/05/29 07:50:45;;;;;;;6.37;2.23;;;;;;;13.61;80.89;100551.00;8346892;28;20037;-62
2022/05/29 07:54:45;;;;;;;10.60;2.35;;;;;;;13.70;81.12;100547.31;8341190;28;20302;-62
2022/05/29 07:58:46;;;;;;;2.90;1.15;;;;;;;13.25;77.21;100554.78;8346259;28;20119;-62
2022/05/29 08:02:47;;;;;;;4.70;1.50;;;;;;;13.12;79.82;100554.31;8345070;28;20040;-62
2022/05/29 08:06:47;;;;;;;9.52;1.60;;;;;;;13.12;79.34;100549.72;8344257;28;20481;-61
2022/05/29 08:10:48;;;;;;;8.85;1.33;;;;;;;13.31;80.94;100546.84;8342264;28;20488;-61
2022/05/29 08:14:48;;;;;;;3.75;1.67;;;;;;;13.63;80.29;100543.50;8343824;28;20490;-61
2022/05/29 08:18:49;;;;;;;6.20;1.92;;;;;;;13.17;79.01;100551.97;8340415;28;20119;-61
2022/05/29 08:22:49;;;;;;;4.63;2.05;;;;;;;13.08;78.73;100550.19;8341520;28;20048;-61
2022/05/29 08:31:10;;;;;;;6.35;2.00;;;;;;;12.91;82.34;100540.19;8350779;28;20275;-62
2022/05/29 08:35:10;;;;;;;6.23;1.97;;;;;;;13.17;85.60;100535.69;8349108;28;20045;-61
2022/05/29 08:39:11;;;;;;;4.03;2.50;;;;;;;13.13;88.75;100539.72;8348188;28;20672;-62
2022/05/29 08:43:18;;;;;;;4.22;2.75;;;;;;;12.83;91.21;100540.06;8330723;28;20475;-62
2022/05/29 08:47:25;;;;;;;7.30;2.88;;;;;;;12.81;92.49;100533.97;8351903;28;20053;-61
2022/05/29 08:51:57;;;;;;;7.43;3.25;;;;;;;13.58;93.35;100533.13;8347569;28;20148;-61
2022/05/29 08:56:06;;;;;;;8.05;2.40;;;;;;;14.02;86.35;100533.91;8347472;28;20061;-61
2022/05/29 09:04:35;;;;;;;7.78;2.33;;;;;;;15.02;86.10;100534.75;8368640;27;20391;-61
2022/05/29 09:08:45;;;;;;;5.95;2.55;;;;;;;14.99;77.53;100524.19;8354065;28;20318;-61
2022/05/29 09:12:51;;;;;;;5.22;2.00;;;;;;;16.26;75.95;100510.56;8352925;28;20045;-61
2022/05/29 09:17:00;;;;;;;5.97;2.35;;;;;;;15.83;73.15;100520.09;8360285;28;20033;-61
2022/05/29 09:21:10;;;;;;;7.80;1.98;;;;;;;15.58;76.13;100521.16;8361895;28;20044;-61
2022/05/29 09:25:32;;;;;;;6.43;2.25;;;;;;;16.06;76.21;100510.13;8356471;28;20114;-62
2022/05/29 09:29:36;;;;;;;4.22;1.63;;;;;;;16.33;73.43;100495.19;8367750;28;20040;-63
2022/05/29 09:33:38;;;;;;;5.47;1.92;;;;;;;16.43;72.83;100496.69;8361085;28;21316;-62
2022/05/29 09:37:56;;;;;;;5.03;1.73;;;;;;;16.57;73.36;100486.91;8361590;28;20048;-62
2022/05/29 09:42:21;;;;;;;4.38;1.70;;;;;;;16.03;68.13;100493.25;8359212;28;20049;-62
2022/05/29 09:46:23;;;;;;;6.72;2.22;;;;;;;16.36;70.07;100483.91;8350539;28;20045;-62
2022/05/29 09:50:54;;;;;;;5.35;1.55;;;;;;;17.08;69.00;100483.47;8366060;28;20623;-62
2022/05/29 09:59:19;;;;;;;4.00;1.48;;;;;;;19.02;61.28;100470.88;8348194;27;20759;-62
2022/05/29 10:03:52;;;;;;;4.10;1.35;;;;;;;18.46;59.75;100471.75;8298845;28;20042;-62
2022/05/29 10:07:55;;;;;;;5.50;1.27;;;;;;;16.86;64.52;100481.59;8275491;28;20073;-63
2022/05/29 10:12:14;;;;;;;8.23;1.80;;;;;;;16.04;69.08;100481.34;8274387;28;20100;-61
2022/05/29 10:16:35;;;;;;;7.88;1.42;;;;;;;15.42;72.74;100489.34;8271244;28;20034;-61
2022/05/29 10:20:39;;;;;;;7.57;1.73;;;;;;;14.07;80.72;100487.19;8281838;28;20042;-61
2022/05/29 10:24:40;;;;;;;6.28;1.98;;;;;;;13.21;84.97;100485.50;8283136;28;20146;-61
2022/05/29 10:28:41;;;;;;;7.82;2.88;;;;;;;13.13;85.76;100480.00;8260709;28;20731;-61
2022/05/29 10:32:42;;;;;;;39.20;18.42;;;;;;;13.37;88.19;100482.91;8257781;28;20053;-62
2022/05/29 10:36:43;;;;;;;6.88;2.63;;;;;;;13.39;87.38;100473.56;8288750;28;20518;-63
2022/05/29 10:40:44;;;;;;;11.93;2.45;;;;;;;13.24;87.28;100474.34;8317506;28;20041;-62
2022/05/29 10:44:46;;;;;;;9.13;2.38;;;;;;;13.19;91.87;100484.81;8297327;28;20044;-62
2022/05/29 10:49:22;;;;;;;11.10;2.35;;;;;;;13.11;95.03;100476.59;8278365;28;20053;-62
2022/05/29 10:53:53;;;;;;;11.63;3.47;;;;;;;13.09;96.14;100486.78;8282193;28;20044;-62
2022/05/29 10:58:20;;;;;;;13.32;2.78;;;;;;;13.17;94.35;100475.97;8275244;28;20491;-62
2022/05/29 11:03:26;;;;;;;10.05;3.05;;;;;;;13.11;92.52;100476.59;8279655;28;20129;-62
2022/05/29 11:07:41;;;;;;;5.45;1.90;;;;;;;13.18;87.75;100466.81;8268481;28;20077;-63
2022/05/29 11:12:08;;;;;;;9.43;2.75;;;;;;;12.98;92.90;100481.53;8250137;28;20038;-63
2022/05/29 11:16:33;;;;;;;7.45;3.65;;;;;;;12.61;100.00;100491.72;8239889;28;20418;-62
2022/05/29 11:20:51;;;;;;;9.45;3.60;;;;;;;12.32;100.00;100477.53;8260195;28;20619;-63
2022/05/29 11:25:26;;;;;;;17.60;3.90;;;;;;;12.18;100.00;100475.31;8256744;28;20034;-62
2022/05/29 11:30:06;;;;;;;9.43;4.18;;;;;;;12.40;100.00;100485.72;8244256;28;20256;-63
2022/05/29 11:34:46;;;;;;;7.18;2.78;;;;;;;12.70;100.00;100466.38;8265585;28;20130;-63
2022/05/29 11:39:07;;;;;;;5.90;2.90;;;;;;;12.92;100.00;100461.31;8273585;28;20050;-63
2022/05/29 11:43:33;;;;;;;5.43;2.95;;;;;;;13.46;100.00;100457.50;8268915;28;20040;-63
2022/05/29 11:52:17;;;;;;;6.35;3.10;;;;;;;13.82;100.00;100448.22;8238513;28;20043;-64
2022/05/29 11:56:26;;;;;;;6.05;3.38;;;;;;;14.00;100.00;100437.22;8243151;28;20042;-64
2022/05/29 12:00:39;;;;;;;7.90;3.42;;;;;;;13.84;100.00;100436.16;8257908;28;20041;-63
2022/05/29 12:04:48;;;;;;;7.53;3.77;;;;;;;14.01;100.00;100434.34;8266214;28;20057;-64
2022/05/29 12:09:15;;;;;;;8.55;2.90;;;;;;;14.19;99.67;100424.22;8253725;28;20291;-63
2022/05/29 12:13:19;;;;;;;5.55;2.83;;;;;;;14.52;94.28;100420.53;8251897;28;20050;-63
2022/05/29 12:17:28;;;;;;;7.63;2.95;;;;;;;15.52;92.61;100413.69;8234076;28;20137;-63
2022/05/29 12:21:59;;;;;;;5.25;2.50;;;;;;;15.86;87.20;100415.28;8262707;28;20709;-63
2022/05/29 12:26:06;;;;;;;5.70;2.03;;;;;;;15.34;83.38;100399.41;8239177;28;20550;-63
2022/05/29 12:30:24;;;;;;;4.97;2.10;;;;;;;16.06;87.25;100400.19;8235101;28;20034;-63
2022/05/29 12:34:29;;;;;;;4.15;2.03;;;;;;;16.17;84.70;100391.63;8243398;28;20523;-63
2022/05/29 12:39:09;;;;;;;6.00;1.70;;;;;;;16.36;82.37;100391.16;8247395;28;20525;-63
2022/05/29 12:47:57;;;;;;;5.05;2.00;;;;;;;15.16;83.06;100371.53;8298943;27;21364;-61
2022/05/29 12:52:20;;;;;;;3.22;1.80;;;;;;;15.19;82.09;100373.91;8308863;28;20065;-62
2022/05/29 12:57:00;;;;;;;5.40;1.77;;;;;;;15.39;84.07;100369.81;8311418;28;20045;-62
2022/05/29 13:05:48;;;;;;;3.60;1.25;;;;;;;16.65;80.34;100364.03;8342329;27;20889;-61
2022/05/29 13:14:07;;;;;;;4.88;1.05;;;;;;;16.72;74.20;100356.78;8345708;27;20439;-61
2022/05/29 13:18:40;;;;;;;1.25;0.73;;;;;;;16.35;71.60;100356.72;8354884;28;20451;-62
2022/05/29 13:23:03;;;;;;;2.47;0.73;;;;;;;15.98;72.50;100349.25;8336722;28;20157;-62
2022/05/29 13:27:27;;;;;;;2.90;0.70;;;;;;;15.88;72.66;100348.66;8350108;27;20041;-62
2022/05/29 13:31:31;;;;;;;;;;;;;;;15.99;74.53;100355.56;8345197;28;20457;-62
2022/05/29 13:35:39;;;;;;;3.15;0.60;;;;;;;15.84;73.89;100354.63;8348051;28;19953;-62
2022/05/29 13:40:04;;;;;;;6.57;1.20;;;;;;;15.98;76.01;100354.72;8345446;28;20048;-62
2022/05/29 13:44:40;;;;;;;4.35;0.90;;;;;;;15.53;77.28;100344.53;8349869;28;20434;-62
2022/05/29 13:49:22;;;;;;;1.92;0.88;;;;;;;14.39;91.44;100363.06;8334898;28;20288;-61
2022/05/29 13:54:00;;;;;;;4.55;1.10;;;;;;;13.59;100.00;100363.72;8327964;28;20041;-61
2022/05/29 14:11:21;;;;;;;0.60;0.50;;;;;;;12.48;100.00;100363.81;8356771;27;20431;-61
2022/05/29 14:20:29;;;;;;;1.95;0.50;;;;;;;12.19;100.00;100374.88;8384243;27;20808;-61
2022/05/29 14:33:28;;;;;;;3.65;0.98;;;;;;;13.09;100.00;100364.63;8367020;27;20395;-61
2022/05/29 14:37:55;;;;;;;0.98;0.60;;;;;;;13.69;98.22;100358.97;8364632;28;20516;-61
2022/05/29 14:42:03;;;;;;;1.83;0.70;;;;;;;14.01;95.66;100363.69;8360225;28;20032;-61
2022/05/29 14:46:14;;;;;;;0.90;0.57;;;;;;;14.42;93.13;100357.31;8347938;28;20126;-63
2022/05/29 14:50:23;;;;;;;1.25;0.52;;;;;;;14.37;89.01;100359.69;8346414;28;20502;-63
2022/05/29 14:54:32;;;;;;;0.60;0.40;;;;;;;14.46;88.67;100350.53;8338291;28;20176;-62
2022/05/29 14:58:37;;;;;;;1.00;0.55;;;;;;;14.48;86.82;100345.75;8342689;28;20044;-64
2022/05/29 15:02:38;;;;;;;2.65;0.82;;;;;;;14.66;84.52;100338.25;8337526;28;20095;-64
2022/05/29 15:11:10;;;;;;;3.95;1.73;;;;;;;14.52;86.58;100349.81;8337055;28;20049;-64
2022/05/29 15:15:27;;;;;;;1.48;0.90;;;;;;;14.52;88.71;100340.81;8342101;28;20625;-64
2022/05/29 15:24:28;;;;;;;1.13;0.90;;;;;;;14.64;84.38;100340.28;8337716;28;20052;-62
2022/05/29 15:28:16;;;;;;;0.98;0.55;;;;;;;14.43;82.96;100347.28;8336777;28;20072;-63
2022/05/29 15:32:29;;;;;;;1.42;0.60;;;;;;;14.17;89.32;100352.81;8360588;28;20056;-63
2022/05/29 15:36:56;;;;;;;1.83;0.98;;;;;;;13.60;95.48;100348.25;8307440;28;20170;-62
2022/05/29 15:41:29;;;;;;;2.58;0.68;;;;;;;12.94;98.63;100341.78;8322404;28;20319;-63
2022/05/29 15:46:11;;;;;;;0.95;0.47;;;;;;;12.55;100.00;100351.31;8307911;28;20049;-62
2022/05/29 15:50:22;;;;;;;2.40;0.47;;;;;;;12.41;100.00;100347.28;8312810;28;20139;-62
2022/05/29 15:54:34;;;;;;;1.88;0.40;;;;;;;12.50;100.00;100340.94;8339281;28;20045;-62
2022/05/29 15:59:09;;;;;;;1.55;0.50;;;;;;;12.62;100.00;100336.09;8341988;28;20383;-62
2022/05/29 16:03:13;;;;;;;1.35;0.70;;;;;;;12.77;100.00;100332.66;8343195;28;20180;-62
2022/05/29 16:07:35;;;;;;;2.03;0.50;;;;;;;12.78;100.00;100326.22;8341873;28;20053;-62
2022/05/29 16:12:01;;;;;;;1.20;0.60;;;;;;;13.06;100.00;100316.09;8335631;28;20750;-62
2022/05/29 16:16:13;;;;;;;5.18;0.85;;;;;;;13.33;99.54;100308.59;8337760;28;20460;-62
2022/05/29 16:20:31;;;;;;;0.82;0.55;;;;;;;13.59;100.00;100308.50;8329874;28;20054;-62
2022/05/29 16:29:19;;;;;;;2.05;0.82;;;;;;;14.04;97.29;100317.13;8387844;27;20390;-62
2022/05/29 16:33:25;;;;;;;2.35;1.27;;;;;;;14.11;95.60;100320.88;8347477;28;20054;-62
2022/05/29 16:51:04;;;;;;;2.67;0.80;;;;;;;13.84;90.77;100313.00;8354022;28;20053;-62
2022/05/29 16:55:08;;;;;;;0.95;0.60;;;;;;;13.94;90.06;100315.56;8340624;28;20481;-63
2022/05/29 16:59:18;;;;;;;3.08;0.90;;;;;;;13.93;93.47;100317.44;8350235;28;20531;-62
2022/05/29 17:03:43;;;;;;;1.77;1.02;;;;;;;13.85;93.90;100314.72;8346287;28;20791;-63
2022/05/29 17:07:58;;;;;;;3.25;1.00;;;;;;;14.05;95.25;100313.38;8347104;28;20625;-63
2022/05/29 17:11:58;;;;;;;2.38;0.77;;;;;;;13.96;93.61;100317.09;8352079;28;20147;-63
2022/05/29 17:15:59;;;;;;;3.30;0.80;;;;;;;13.61;94.39;100312.75;8347966;28;20041;-63
2022/05/29 17:20:00;;;;;;;2.33;0.60;;;;;;;13.42;93.73;100313.03;8351207;28;20546;-63
2022/05/29 17:24:29;;;;;;;2.22;1.02;;;;;;;13.28;93.10;100326.38;8346640;28;20041;-63
2022/05/29 17:33:14;;;;;;;5.65;1.40;;;;;;;11.82;98.61;100339.78;8384661;27;20387;-61
2022/05/29 17:37:30;;;;;;;2.05;1.25;;;;;;;11.56;100.00;100338.78;8360793;28;20879;-63
2022/05/29 17:41:35;;;;;;;2.78;1.40;;;;;;;11.46;100.00;100329.84;8363410;28;20067;-61
2022/05/29 17:45:37;;;;;;;4.22;1.00;;;;;;;11.29;100.00;100314.41;8368654;28;20531;-61
2022/05/29 17:50:05;;;;;;;3.08;1.10;;;;;;;11.30;100.00;100320.69;8333869;28;20075;-61
2022/05/29 17:54:25;;;;;;;3.10;0.98;;;;;;;11.37;100.00;100311.81;8335843;28;20045;-62
2022/05/29 17:58:26;;;;;;;1.00;0.60;;;;;;;11.43;100.00;100302.22;8334578;28;20140;-61
2022/05/29 18:02:29;;;;;;;1.02;0.60;;;;;;;11.53;100.00;100301.16;8334660;28;20048;-61
2022/05/29 18:06:29;;;;;;;3.17;1.00;;;;;;;11.80;100.00;100314.72;8334285;28;20055;-62
2022/05/29 18:10:34;;;;;;;1.05;0.60;;;;;;;12.00;100.00;100306.44;8332304;28;20103;-62
2022/05/29 18:14:35;;;;;;;2.35;0.80;;;;;;;12.08;100.00;100301.97;8332284;28;20458;-62
2022/05/29 18:18:35;;;;;;;4.00;1.33;;;;;;;12.06;100.00;100303.97;8328725;28;20041;-62
2022/05/29 18:22:37;;;;;;;1.52;0.90;;;;;;;12.10;100.00;100304.50;8323778;28;20053;-62
2022/05/29 18:26:38;;;;;;;1.95;1.10;;;;;;;12.08;100.00;100291.13;8332690;28;20061;-62
2022/05/29 18:30:39;;;;;;;4.63;1.60;;;;;;;12.16;100.00;100288.47;8333283;28;20045;-62
2022/05/29 18:34:39;;;;;;;5.35;1.77;;;;;;;11.90;100.00;100304.66;8333156;28;20045;-62
2022/05/29 18:38:40;;;;;;;7.95;4.82;;;;;;;12.10;100.00;100304.50;8334116;28;20041;-63
2022/05/29 18:42:41;;;;;;;5.22;3.40;;;;;;;12.00;100.00;100303.72;8323711;28;20322;-62
2022/05/29 18:46:42;;;;;;;5.75;2.50;;;;;;;11.88;100.00;100303.97;8313217;28;20037;-62
2022/05/29 18:50:46;;;;;;;5.75;2.30;;;;;;;11.90;100.00;100307.34;8308431;28;20045;-62
2022/05/29 18:54:47;;;;;;;2.80;2.20;;;;;;;11.83;100.00;100308.97;8307056;28;20457;-62
2022/05/29 18:58:47;;;;;;;4.47;2.63;;;;;;;11.67;100.00;100305.25;8309314;28;20042;-62
2022/05/29 19:02:47;;;;;;;7.68;3.10;;;;;;;11.86;100.00;100292.44;8308962;28;20068;-63
2022/05/29 19:06:48;;;;;;;4.38;2.28;;;;;;;11.78;100.00;100311.28;8308099;28;20592;-63
2022/05/29 19:10:48;;;;;;;1.52;1.25;;;;;;;11.60;100.00;100299.56;8307306;28;20568;-63
2022/05/29 19:14:49;;;;;;;2.50;1.30;;;;;;;11.53;100.00;100295.75;8308141;28;20439;-63
2022/05/29 19:18:50;;;;;;;3.50;1.77;;;;;;;11.47;100.00;100301.78;8302943;28;20069;-62
2022/05/29 19:22:53;;;;;;;5.05;1.92;;;;;;;11.49;100.00;100291.66;8302498;28;20052;-62
2022/05/29 19:26:53;;;;;;;3.95;2.05;;;;;;;11.50;100.00;100296.06;8308515;28;20468;-62
2022/05/29 19:30:54;;;;;;;5.80;2.03;;;;;;;11.48;100.00;100298.09;8313251;28;20111;-62
2022/05/29 19:34:56;;;;;;;5.78;2.08;;;;;;;11.53;100.00;100300.34;8308100;28;20303;-63
2022/05/29 19:38:58;;;;;;;3.85;1.92;;;;;;;11.54;100.00;100297.47;8311389;28;20068;-63
2022/05/29 19:42:58;;;;;;;3.70;1.83;;;;;;;11.52;100.00;100299.47;8312818;28;20091;-63
2022/05/29 19:46:59;;;;;;;3.03;1.50;;;;;;;11.39;100.00;100299.00;8307743;28;20127;-63
2022/05/29 19:50:59;;;;;;;4.13;1.65;;;;;;;11.30;100.00;100296.31;8310398;28;20584;-64
2022/05/29 19:55:00;;;;;;;4.28;1.85;;;;;;;11.38;100.00;100302.69;8306632;28;20041;-63
2022/05/29 19:59:01;;;;;;;4.05;2.30;;;;;;;11.28;100.00;100307.28;8310484;28;20069;-63
2022/05/29 20:03:01;;;;;;;3.30;1.90;;;;;;;11.28;100.00;100301.88;8308381;28;20045;-63
2022/05/29 20:07:01;;;;;;;2.70;1.50;;;;;;;11.15;100.00;100295.97;8311774;28;20053;-63
2022/05/29 20:11:08;;;;;;;4.07;2.08;;;;;;;11.11;100.00;100294.59;8314494;28;20041;-63
2022/05/29 20:15:09;;;;;;;5.47;2.58;;;;;;;10.92;100.00;100291.94;8312322;28;20041;-63
2022/05/29 20:19:11;;;;;;;3.80;2.83;;;;;;;10.87;100.00;100306.91;8316840;28;20029;-63
2022/05/29 20:23:12;;;;;;;6.40;2.42;;;;;;;10.73;100.00;100305.53;8317852;28;20107;-62
2022/05/29 20:27:12;;;;;;;5.83;2.47;;;;;;;10.59;100.00;100303.31;8317851;28;20317;-62
2022/05/29 20:31:19;;;;;;;6.75;2.42;;;;;;;10.63;100.00;100312.81;8317847;28;20319;-63
2022/05/29 20:35:20;;;;;;;4.15;1.80;;;;;;;10.65;100.00;100305.44;8316816;28;20060;-63
2022/05/29 20:39:22;;;;;;;3.50;1.75;;;;;;;10.68;100.00;100305.13;8321960;28;20049;-63
2022/05/29 20:43:22;;;;;;;4.38;1.75;;;;;;;10.81;100.00;100313.78;8325909;28;20044;-62
2022/05/29 20:47:24;;;;;;;7.65;1.92;;;;;;;10.86;100.00;100311.47;8324794;28;20041;-62
2022/05/29 20:51:25;;;;;;;3.65;2.33;;;;;;;10.85;100.00;100308.91;8325510;28;20034;-63
2022/05/29 20:55:27;;;;;;;3.15;1.98;;;;;;;10.91;100.00;100303.75;8324501;28;20045;-63
2022/05/29 20:59:28;;;;;;;5.85;2.30;;;;;;;10.90;100.00;100302.06;8325504;28;20057;-62
2022/05/29 21:03:28;;;;;;;4.38;2.22;;;;;;;10.87;100.00;100299.66;8322449;28;20518;-62
2022/05/29 21:07:29;;;;;;;3.80;2.27;;;;;;;10.86;100.00;100306.06;8317413;28;20097;-62
2022/05/29 21:11:31;;;;;;;4.40;2.40;;;;;;;10.91;100.00;100298.34;8315401;28;20276;-62